Time;durP1;ratioP1;P1;durP2;ratioP2;P2;SDS_P1;SDS_P2;PMS_P1;PMS_P2;Temp;Humidity;BMP_temperature;BMP_pressure;BME280_temperature;BME280_humidity;BME280_pressure;Samples;Min_cycle;Max_cycle;Signal;HPM_P1;HPM_P2
2023/03/06 07:08:36;;;;;;;14.80;6.70;;;;;;;1.24;58.63;98621.98;80355;1299;3013166;-61
2023/03/06 07:11:06;;;;;;;11.90;6.30;;;;;;;1.23;58.16;98618.36;78943;1304;3013280;-62
2023/03/06 07:13:35;;;;;;;11.00;5.80;;;;;;;1.11;58.98;98619.50;77965;1304;3053208;-61
2023/03/06 07:16:02;;;;;;;12.40;5.70;;;;;;;1.21;58.95;98621.92;79067;1304;3020601;-63
2023/03/06 07:18:29;;;;;;;13.80;6.00;;;;;;;1.32;59.04;98619.11;79136;1301;3012405;-62
2023/03/06 07:20:56;;;;;;;10.40;4.90;;;;;;;1.10;59.18;98626.79;75910;1295;5217640;-64
2023/03/06 07:23:23;;;;;;;11.70;5.80;;;;;;;1.08;59.59;98621.89;79576;1295;3018235;-61
2023/03/06 07:25:49;;;;;;;12.70;5.70;;;;;;;1.14;59.89;98620.95;79382;1295;3011653;-64
2023/03/06 07:28:18;;;;;;;8.70;4.60;;;;;;;1.11;59.67;98620.38;78133;1300;3053278;-63
2023/03/06 07:30:45;;;;;;;10.80;4.70;;;;;;;1.45;59.15;98615.52;79409;1301;3012983;-63
2023/03/06 07:33:12;;;;;;;10.70;5.40;;;;;;;1.39;59.05;98621.08;79401;1298;3011634;-61
2023/03/06 07:35:41;;;;;;;10.30;5.50;;;;;;;1.29;58.72;98619.21;78228;1298;3056444;-63
2023/03/06 07:38:13;;;;;;;11.30;5.90;;;;;;;1.43;59.11;98615.61;79430;1295;3011735;-67
2023/03/06 07:40:41;;;;;;;8.90;5.80;;;;;;;1.65;58.24;98615.33;78250;1295;3053217;-63
2023/03/06 07:43:09;;;;;;;14.50;5.90;;;;;;;1.67;58.00;98614.53;79345;1298;3012887;-65
2023/03/06 07:45:42;;;;;;;10.40;5.50;;;;;;;1.93;57.81;98605.61;78263;1298;3051985;-63
2023/03/06 07:48:09;;;;;;;11.10;5.10;;;;;;;1.86;55.46;98605.86;79529;1298;3019171;-64
2023/03/06 07:50:37;;;;;;;10.60;5.30;;;;;;;1.65;55.84;98608.75;79327;1298;3011551;-63
2023/03/06 07:53:05;;;;;;;16.10;4.50;;;;;;;1.87;55.73;98611.20;78191;1295;3050937;-62
2023/03/06 07:55:32;;;;;;;11.40;5.40;;;;;;;2.13;55.19;98609.81;79424;1296;3018688;-63
2023/03/06 07:57:59;;;;;;;14.60;6.30;;;;;;;2.34;55.36;98614.34;79372;1298;3011607;-60
2023/03/06 08:00:27;;;;;;;11.40;5.50;;;;;;;2.48;55.01;98612.70;78190;1298;3028151;-62
2023/03/06 08:02:54;;;;;;;14.50;5.50;;;;;;;2.68;54.91;98612.77;79398;1295;3013604;-63
2023/03/06 08:05:21;;;;;;;13.10;6.00;;;;;;;2.66;54.26;98621.65;79443;1296;3011830;-64
2023/03/06 08:07:48;;;;;;;14.40;5.20;;;;;;;2.79;53.75;98624.40;78186;1295;3048625;-58
2023/03/06 08:10:16;;;;;;;9.30;4.70;;;;;;;2.79;53.59;98633.59;79401;1298;3020809;-63
2023/03/06 08:12:44;;;;;;;9.80;4.70;;;;;;;2.82;53.60;98639.16;79340;1296;3013257;-62
2023/03/06 08:15:12;;;;;;;10.00;4.30;;;;;;;2.74;53.94;98647.99;78411;1298;3051951;-60
2023/03/06 08:17:40;;;;;;;8.70;4.20;;;;;;;2.73;54.60;98650.78;79389;1298;3013083;-64
2023/03/06 08:20:09;;;;;;;11.80;5.10;;;;;;;2.81;54.29;98655.80;79361;1296;3011594;-63
2023/03/06 08:22:37;;;;;;;17.90;4.40;;;;;;;2.79;54.62;98650.73;78171;1296;3048785;-63
2023/03/06 08:25:04;;;;;;;12.00;4.00;;;;;;;2.81;54.09;98664.97;79413;1295;3012786;-64
2023/03/06 08:27:32;;;;;;;12.00;4.60;;;;;;;2.95;54.00;98656.27;79645;1293;3012425;-63
2023/03/06 08:30:00;;;;;;;12.40;4.00;;;;;;;2.97;53.95;98662.94;78231;1298;3053507;-61
2023/03/06 08:32:26;;;;;;;13.80;5.50;;;;;;;2.85;53.97;98673.64;79469;1295;3019098;-62
2023/03/06 08:34:53;;;;;;;9.90;4.70;;;;;;;2.67;54.67;98672.46;79386;1298;3012032;-63
2023/03/06 08:37:21;;;;;;;11.70;4.20;;;;;;;2.58;55.23;98672.84;78180;1298;3028965;-63
2023/03/06 08:39:47;;;;;;;10.40;4.60;;;;;;;2.39;55.99;98672.20;79522;1295;3013114;-63
2023/03/06 08:42:14;;;;;;;12.80;5.00;;;;;;;2.59;56.23;98671.41;79790;1298;3011918;-60
2023/03/06 08:44:43;;;;;;;11.10;5.00;;;;;;;2.49;56.54;98677.19;78449;1298;3051526;-61
2023/03/06 08:47:09;;;;;;;10.50;5.00;;;;;;;2.57;56.76;98677.71;79631;1298;3021117;-61
2023/03/06 08:49:38;;;;;;;11.70;5.00;;;;;;;2.69;56.64;98669.64;79623;1295;3011848;-60
2023/03/06 08:52:06;;;;;;;13.60;4.90;;;;;;;2.78;56.34;98672.88;78238;1293;3049430;-63
2023/03/06 08:54:38;;;;;;;15.10;6.40;;;;;;;2.69;56.56;98673.77;79543;1293;3011994;-62
2023/03/06 08:57:07;;;;;;;12.20;5.60;;;;;;;2.78;56.11;98672.89;78332;1298;3051578;-65
2023/03/06 08:59:34;;;;;;;12.70;5.80;;;;;;;2.71;56.51;98670.06;79863;1297;3013750;-60
2023/03/06 09:02:01;;;;;;;12.40;5.60;;;;;;;2.80;56.71;98669.20;79638;1297;3014000;-61
2023/03/06 09:04:38;;;;;;;13.90;5.60;;;;;;;3.02;56.51;98671.04;78255;1298;3053256;-64
2023/03/06 09:07:06;;;;;;;13.90;6.10;;;;;;;3.09;55.82;98669.70;79732;1292;3014014;-62
2023/03/06 09:09:33;;;;;;;12.40;5.60;;;;;;;2.82;55.47;98678.41;79555;1293;3012190;-62
2023/03/06 09:12:01;;;;;;;10.90;5.20;;;;;;;2.97;54.63;98672.80;78333;1295;3049554;-63
2023/03/06 09:14:27;;;;;;;13.50;5.90;;;;;;;2.96;53.54;98662.09;79579;1298;3013531;-62
2023/03/06 09:16:54;;;;;;;14.00;4.70;;;;;;;2.84;53.24;98669.17;79581;1297;3013153;-64
2023/03/06 09:19:22;;;;;;;15.60;5.00;;;;;;;2.76;53.48;98670.23;78414;1295;3028683;-63
2023/03/06 09:21:48;;;;;;;10.50;3.80;;;;;;;2.88;52.85;98679.22;79581;1296;3013348;-63
2023/03/06 09:24:16;;;;;;;12.10;4.60;;;;;;;2.99;52.17;98677.20;79629;1292;3011545;-61
2023/03/06 09:26:44;;;;;;;14.50;5.10;;;;;;;3.02;52.12;98658.20;78347;1298;3053103;-61
2023/03/06 09:29:11;;;;;;;14.10;3.90;;;;;;;2.91;52.12;98673.23;79597;1295;3013719;-61
2023/03/06 09:31:38;;;;;;;14.00;5.20;;;;;;;2.81;51.56;98671.39;79593;1298;3011620;-59
2023/03/06 09:34:06;;;;;;;17.00;6.50;;;;;;;2.69;51.61;98669.09;78416;1298;3051179;-63
2023/03/06 09:36:34;;;;;;;12.30;4.70;;;;;;;2.76;50.91;98670.91;79629;1293;3013261;-64
2023/03/06 09:39:00;;;;;;;17.90;5.70;;;;;;;2.96;50.82;98659.01;79535;1292;3011607;-63
2023/03/06 09:41:36;;;;;;;20.70;5.80;;;;;;;3.22;50.22;98655.27;78400;1297;3049767;-64
2023/03/06 09:44:07;;;;;;;14.00;5.30;;;;;;;3.25;49.87;98651.89;79162;1298;3012180;-63
2023/03/06 09:46:40;;;;;;;10.90;5.90;;;;;;;3.16;49.28;98658.66;79708;1293;3013605;-63
2023/03/06 09:49:34;;;;;;;11.70;5.10;;;;;;;3.31;48.98;98666.85;78404;1293;3051678;-62
2023/03/06 09:52:02;;;;;;;10.30;5.10;;;;;;;3.39;48.55;98660.09;78325;1292;3069963;-62
2023/03/06 09:54:46;;;;;;;11.10;4.90;;;;;;;3.43;48.24;98664.40;79742;1293;3013224;-61
2023/03/06 09:57:34;;;;;;;10.40;4.80;;;;;;;3.24;47.64;98664.39;78363;1298;3050234;-64
2023/03/06 10:00:14;;;;;;;10.90;5.00;;;;;;;3.26;47.87;98662.73;78278;1293;3054590;-63
2023/03/06 10:02:51;;;;;;;8.50;4.40;;;;;;;3.41;47.97;98665.20;78272;1295;3049783;-60
2023/03/06 10:05:22;;;;;;;11.80;4.80;;;;;;;3.48;47.20;98652.10;78360;1295;3052837;-64
2023/03/06 10:08:00;;;;;;;11.00;3.80;;;;;;;3.38;47.22;98659.10;79538;1300;3014239;-63
2023/03/06 10:10:39;;;;;;;9.50;4.60;;;;;;;3.43;46.96;98666.13;78206;1298;3069708;-61
2023/03/06 10:13:35;;;;;;;6.80;3.30;;;;;;;3.43;46.39;98655.73;78254;1295;3051233;-64
2023/03/06 10:16:18;;;;;;;10.20;4.60;;;;;;;3.71;46.53;98654.48;78339;1297;3057430;-61
2023/03/06 10:18:49;;;;;;;12.10;4.80;;;;;;;3.93;46.45;98660.93;78262;1297;3050518;-62
2023/03/06 10:21:30;;;;;;;10.80;4.60;;;;;;;3.85;46.69;98648.69;79591;1293;3013366;-62
2023/03/06 10:24:29;;;;;;;10.60;4.30;;;;;;;3.89;46.28;98652.67;78186;1298;3053672;-61
2023/03/06 10:27:03;;;;;;;11.00;4.60;;;;;;;3.83;46.43;98647.02;78087;1295;3051873;-62
2023/03/06 10:29:51;;;;;;;10.60;4.60;;;;;;;3.91;46.68;98651.17;79047;1298;3012153;-62
2023/03/06 10:32:28;;;;;;;13.70;3.70;;;;;;;4.04;45.67;98667.59;78282;1293;3069944;-65
2023/03/06 10:34:59;;;;;;;9.40;4.60;;;;;;;3.85;45.64;98661.51;78292;1296;3050743;-62
2023/03/06 10:37:28;;;;;;;7.50;3.70;;;;;;;3.94;45.67;98665.77;79503;1296;3012998;-63
2023/03/06 10:40:00;;;;;;;8.70;4.50;;;;;;;3.80;46.16;98655.48;78291;1294;3048937;-61
2023/03/06 10:42:27;;;;;;;10.10;3.90;;;;;;;3.70;47.08;98662.71;79584;1293;3011565;-63
2023/03/06 10:45:13;;;;;;;12.60;5.10;;;;;;;3.83;46.72;98654.83;78363;1298;3050755;-63
2023/03/06 10:47:42;;;;;;;10.80;3.90;;;;;;;3.64;46.88;98640.63;78309;1298;3054291;-61
2023/03/06 10:50:26;;;;;;;8.70;3.10;;;;;;;3.79;45.64;98652.92;79549;1298;3014553;-64
2023/03/06 10:52:59;;;;;;;6.70;3.50;;;;;;;3.75;45.99;98652.94;78425;1299;3051582;-63
2023/03/06 10:55:35;;;;;;;7.30;3.70;;;;;;;3.72;46.12;98643.39;79203;1293;3011825;-61
2023/03/06 10:58:22;;;;;;;10.40;3.20;;;;;;;3.80;46.00;98649.95;79645;1298;3011709;-65
2023/03/06 11:01:17;;;;;;;9.80;3.60;;;;;;;3.74;46.77;98641.22;78141;1298;3049973;-63
2023/03/06 11:03:46;;;;;;;12.40;4.60;;;;;;;3.71;47.36;98642.40;78243;1295;3054494;-63
2023/03/06 11:06:36;;;;;;;12.40;4.90;;;;;;;3.62;48.06;98634.98;79290;1299;3014951;-61
2023/03/06 11:09:20;;;;;;;13.20;5.00;;;;;;;3.91;47.97;98636.08;78173;1298;3053376;-63
2023/03/06 11:11:51;;;;;;;10.40;5.50;;;;;;;4.16;47.76;98636.86;78155;1296;3069703;-63
2023/03/06 11:14:21;;;;;;;12.40;5.20;;;;;;;4.30;47.58;98638.23;79368;1295;3013086;-62
2023/03/06 11:16:52;;;;;;;10.00;4.30;;;;;;;4.02;48.26;98636.44;78201;1297;3056863;-63
2023/03/06 11:19:25;;;;;;;16.90;5.10;;;;;;;3.98;48.53;98624.52;79469;1295;3011654;-62
2023/03/06 11:22:16;;;;;;;9.20;3.70;;;;;;;3.99;48.85;98623.95;78279;1298;3052946;-62
2023/03/06 11:24:48;;;;;;;7.40;3.90;;;;;;;3.86;49.25;98626.98;78236;1298;3049627;-62
2023/03/06 11:27:14;;;;;;;5.80;2.90;;;;;;;3.83;49.62;98632.64;79375;1298;3011708;-63
2023/03/06 11:29:44;;;;;;;8.30;3.00;;;;;;;3.99;49.68;98637.80;78209;1298;3027281;-63
2023/03/06 11:32:23;;;;;;;7.80;3.60;;;;;;;4.12;49.64;98631.86;79451;1300;3012977;-65
2023/03/06 11:35:12;;;;;;;7.90;3.80;;;;;;;4.17;49.55;98640.45;78286;1298;3057334;-65
2023/03/06 11:37:45;;;;;;;7.50;3.20;;;;;;;4.06;50.09;98642.15;78292;1297;3049497;-65
2023/03/06 11:40:19;;;;;;;7.10;3.60;;;;;;;4.34;49.01;98643.77;79596;1298;3013131;-63
2023/03/06 11:42:52;;;;;;;8.40;3.80;;;;;;;4.18;49.57;98646.10;78331;1298;3050126;-63
2023/03/06 11:45:38;;;;;;;10.70;3.60;;;;;;;4.08;49.88;98641.91;79563;1292;3011717;-62
2023/03/06 11:48:12;;;;;;;5.10;3.00;;;;;;;4.05;49.68;98653.80;78494;1298;3053268;-62
2023/03/06 11:50:43;;;;;;;9.00;3.60;;;;;;;4.15;49.62;98649.70;79635;1298;3014141;-60
2023/03/06 11:53:22;;;;;;;10.60;3.90;;;;;;;4.22;49.51;98642.96;78290;1292;3052192;-61
2023/03/06 11:56:09;;;;;;;11.00;3.70;;;;;;;4.20;49.30;98645.84;78300;1301;3057170;-62
2023/03/06 11:59:18;;;;;;;7.40;3.50;;;;;;;4.29;49.12;98644.05;78275;1297;3049658;-63
2023/03/06 12:02:25;;;;;;;6.00;3.10;;;;;;;4.36;49.02;98649.23;78349;1299;3054108;-63
2023/03/06 12:05:05;;;;;;;7.00;2.70;;;;;;;4.33;49.11;98666.03;78260;1298;3050210;-62
2023/03/06 12:07:58;;;;;;;5.90;2.40;;;;;;;4.23;49.02;98668.75;78285;1298;3052141;-65
2023/03/06 12:10:45;;;;;;;7.10;3.40;;;;;;;4.43;48.61;98669.89;78163;1298;3053822;-64
2023/03/06 12:13:32;;;;;;;9.90;3.70;;;;;;;4.27;49.06;98664.56;78213;1293;3070210;-65
2023/03/06 12:16:30;;;;;;;9.10;3.20;;;;;;;4.37;49.17;98666.67;78304;1298;3052095;-62
2023/03/06 12:19:17;;;;;;;10.00;4.50;;;;;;;4.31;49.60;98667.86;78353;1298;3056586;-66
2023/03/06 12:22:10;;;;;;;6.90;3.50;;;;;;;4.43;49.67;98657.23;78278;1298;3049269;-63
2023/03/06 12:24:54;;;;;;;10.90;3.50;;;;;;;4.52;49.54;98669.09;80581;1295;3052703;-63
2023/03/06 12:27:34;;;;;;;5.70;2.90;;;;;;;4.39;49.90;98655.69;80790;1297;3051102;-64
2023/03/06 12:30:08;;;;;;;6.20;3.40;;;;;;;4.58;49.77;98666.57;80778;1298;3052271;-62
2023/03/06 12:32:45;;;;;;;9.00;3.50;;;;;;;4.34;50.17;98665.98;80104;1298;3011658;-63
2023/03/06 12:35:42;;;;;;;7.00;4.00;;;;;;;4.56;50.23;98667.87;78494;1301;3053140;-61
2023/03/06 12:38:25;;;;;;;;;;;;;;;4.64;49.92;98659.00;78119;1298;3069280;-64
2023/03/06 12:41:15;;;;;;;8.20;3.70;;;;;;;4.60;50.07;98664.75;78221;1298;3052034;-60
2023/03/06 12:44:24;;;;;;;8.10;3.80;;;;;;;4.59;50.09;98668.60;78235;1298;3057374;-64
2023/03/06 12:46:57;;;;;;;8.50;3.60;;;;;;;4.62;49.84;98668.77;77901;1306;3050665;-60
2023/03/06 12:49:28;;;;;;;9.00;3.80;;;;;;;4.83;48.99;98666.05;79448;1296;3015735;-65
2023/03/06 12:51:56;;;;;;;7.40;4.00;;;;;;;5.02;48.75;98665.79;78299;1298;3049729;-65
2023/03/06 12:54:30;;;;;;;8.50;4.40;;;;;;;5.10;48.59;98675.24;79668;1298;3018166;-60
2023/03/06 12:56:58;;;;;;;13.10;3.90;;;;;;;5.17;48.47;98671.27;78162;1299;3069123;-65
2023/03/06 12:59:35;;;;;;;7.40;3.70;;;;;;;5.13;48.98;98666.95;79479;1298;3013305;-67
2023/03/06 13:02:13;;;;;;;8.80;3.90;;;;;;;5.24;48.74;98670.58;78214;1298;3049510;-65
2023/03/06 13:05:09;;;;;;;7.70;3.70;;;;;;;5.33;48.47;98666.63;78177;1295;3052759;-66
2023/03/06 13:07:59;;;;;;;7.00;3.70;;;;;;;5.24;48.70;98671.98;78228;1298;3049936;-65
2023/03/06 13:10:34;;;;;;;9.80;4.20;;;;;;;4.83;49.48;98676.61;78267;1298;3052505;-64
2023/03/06 13:13:33;;;;;;;7.10;3.50;;;;;;;4.78;49.56;98668.88;78280;1298;3052141;-62
2023/03/06 13:16:14;;;;;;;9.60;3.50;;;;;;;4.88;49.15;98672.36;78019;1301;3070331;-64
2023/03/06 13:18:42;;;;;;;9.10;2.90;;;;;;;4.87;49.38;98675.02;78030;1298;3052864;-63
2023/03/06 13:21:41;;;;;;;8.90;3.70;;;;;;;4.94;49.54;98680.23;79449;1298;3014269;-63
2023/03/06 13:24:22;;;;;;;9.00;3.50;;;;;;;4.77;50.16;98686.77;78050;1298;3054940;-62
2023/03/06 13:26:52;;;;;;;8.00;2.80;;;;;;;4.74;50.38;98689.05;78278;1301;3049511;-61
2023/03/06 13:29:46;;;;;;;7.30;3.40;;;;;;;4.68;50.05;98688.48;79589;1298;3013132;-61
2023/03/06 13:32:16;;;;;;;11.00;3.10;;;;;;;4.66;49.44;98694.64;78138;1301;3053845;-60
2023/03/06 13:34:45;;;;;;;10.40;3.50;;;;;;;4.66;48.79;98695.14;79279;1301;3012749;-62
2023/03/06 13:37:24;;;;;;;6.40;3.80;;;;;;;4.49;48.50;98695.23;78272;1301;3052155;-64
2023/03/06 13:40:00;;;;;;;6.40;3.70;;;;;;;4.33;48.41;98713.70;79383;1294;3012896;-65
2023/03/06 13:42:38;;;;;;;9.70;3.50;;;;;;;4.32;48.13;98714.80;78185;1298;3051120;-62
2023/03/06 13:45:14;;;;;;;7.10;2.90;;;;;;;4.23;48.53;98714.69;78181;1298;3054420;-63
2023/03/06 13:47:54;;;;;;;9.90;4.10;;;;;;;4.24;48.73;98714.11;78234;1298;3051889;-62
2023/03/06 13:50:28;;;;;;;7.30;4.10;;;;;;;4.31;48.59;98718.33;78199;1298;3053708;-65
2023/03/06 13:52:58;;;;;;;5.30;3.10;;;;;;;4.42;48.51;98709.49;78344;1299;3053502;-63
2023/03/06 13:56:02;;;;;;;6.50;3.10;;;;;;;4.28;48.73;98712.73;79440;1298;3020795;-61
2023/03/06 13:59:04;;;;;;;10.50;3.50;;;;;;;4.08;48.46;98721.27;78179;1295;3056991;-65
2023/03/06 14:01:55;;;;;;;7.70;3.30;;;;;;;3.89;48.51;98722.14;78237;1298;3051009;-63
2023/03/06 14:04:36;;;;;;;12.10;4.00;;;;;;;3.83;49.24;98725.20;78128;1298;3052505;-63
2023/03/06 14:07:24;;;;;;;8.30;3.70;;;;;;;3.92;48.94;98724.92;78214;1299;3051264;-65
2023/03/06 14:09:55;;;;;;;6.60;3.40;;;;;;;4.09;48.74;98725.92;78005;1301;3052780;-63
2023/03/06 14:12:33;;;;;;;5.50;3.20;;;;;;;3.98;48.84;98725.72;78823;1301;3013016;-65
2023/03/06 14:15:24;;;;;;;5.40;3.20;;;;;;;4.07;48.84;98738.46;79421;1301;3011842;-61
2023/03/06 14:18:00;;;;;;;8.80;3.20;;;;;;;3.85;49.50;98737.39;78090;1301;3069204;-59
2023/03/06 14:20:58;;;;;;;6.50;3.50;;;;;;;3.99;49.54;98735.38;78434;1298;3051998;-62
2023/03/06 14:23:34;;;;;;;7.80;3.10;;;;;;;3.96;49.79;98743.64;78061;1295;3057866;-63
2023/03/06 14:26:07;;;;;;;6.10;3.70;;;;;;;4.15;49.20;98746.79;78169;1298;3049674;-60
2023/03/06 14:28:34;;;;;;;;;;;;;;;4.05;49.74;98745.70;79400;1296;3011863;-61
2023/03/06 14:31:03;;;;;;;8.20;3.80;;;;;;;3.97;50.33;98747.59;78190;1298;3050317;-61
2023/03/06 14:33:49;;;;;;;7.50;3.50;;;;;;;4.03;50.25;98752.67;79328;1301;3014066;-60
2023/03/06 14:36:21;;;;;;;7.70;3.80;;;;;;;4.03;50.33;98758.60;78237;1298;3052756;-62
2023/03/06 14:38:58;;;;;;;7.00;3.60;;;;;;;4.02;50.54;98756.91;79599;1299;3013531;-60
2023/03/06 14:41:28;;;;;;;6.00;4.00;;;;;;;4.03;50.62;98762.24;78009;1301;3052911;-63
2023/03/06 14:44:22;;;;;;;10.50;3.80;;;;;;;3.95;51.00;98762.77;79476;1295;3013576;-62
2023/03/06 14:47:10;;;;;;;9.70;4.40;;;;;;;3.97;51.16;98765.09;78205;1301;3050580;-61
2023/03/06 14:49:38;;;;;;;6.70;4.20;;;;;;;4.07;50.95;98770.02;78064;1301;3054469;-64
2023/03/06 14:52:04;;;;;;;7.10;3.80;;;;;;;4.12;50.77;98770.15;79401;1298;3012922;-62
2023/03/06 14:54:33;;;;;;;8.90;3.70;;;;;;;4.11;50.48;98769.50;79326;1299;3012971;-61
2023/03/06 14:57:19;;;;;;;7.90;3.80;;;;;;;4.02;50.36;98770.40;78189;1295;3071118;-64
2023/03/06 14:59:51;;;;;;;6.80;3.40;;;;;;;4.05;50.32;98773.23;77974;1301;3051852;-60
2023/03/06 15:02:20;;;;;;;8.80;4.40;;;;;;;3.94;50.34;98777.34;79493;1298;3011584;-62
2023/03/06 15:04:53;;;;;;;9.30;3.60;;;;;;;3.91;50.08;98784.07;78228;1298;3049412;-61
2023/03/06 15:07:25;;;;;;;8.40;3.90;;;;;;;3.94;50.04;98787.08;79967;1296;3011875;-62
2023/03/06 15:09:54;;;;;;;7.80;4.00;;;;;;;3.75;50.74;98783.39;78239;1301;3050328;-60
2023/03/06 15:12:29;;;;;;;9.60;4.10;;;;;;;3.79;50.72;98788.59;79528;1299;3013342;-60
2023/03/06 15:15:07;;;;;;;11.80;3.60;;;;;;;3.70;50.61;98791.91;78145;1298;3069986;-61
2023/03/06 15:17:38;;;;;;;8.90;3.40;;;;;;;3.70;50.76;98787.58;78163;1305;3051658;-63
2023/03/06 15:20:42;;;;;;;8.00;3.50;;;;;;;3.74;50.75;98791.21;79409;1301;3013406;-60
2023/03/06 15:23:37;;;;;;;5.80;2.90;;;;;;;3.82;50.73;98790.71;78291;1308;3050537;-60
2023/03/06 15:26:25;;;;;;;6.90;3.80;;;;;;;3.89;50.63;98793.67;78097;1299;3053826;-63
2023/03/06 15:29:09;;;;;;;9.90;3.90;;;;;;;3.79;50.93;98797.23;78140;1298;3051809;-61
2023/03/06 15:31:39;;;;;;;8.80;4.30;;;;;;;3.78;51.08;98806.61;78131;1301;3053131;-64
2023/03/06 15:34:06;;;;;;;8.80;3.90;;;;;;;3.74;51.61;98802.30;79335;1298;3012831;-63
2023/03/06 15:36:34;;;;;;;8.00;3.70;;;;;;;3.69;51.76;98811.03;79545;1296;3011656;-62
2023/03/06 15:39:29;;;;;;;10.90;4.10;;;;;;;3.70;51.87;98812.31;78396;1298;3057641;-63
2023/03/06 15:42:06;;;;;;;9.40;4.70;;;;;;;3.63;52.27;98808.98;78221;1298;3049470;-63
2023/03/06 15:44:34;;;;;;;10.80;5.40;;;;;;;3.61;52.44;98808.22;78222;1298;3054245;-63
2023/03/06 15:47:01;;;;;;;13.80;4.90;;;;;;;3.65;52.33;98806.52;79524;1298;3019248;-65
2023/03/06 15:49:28;;;;;;;12.40;5.20;;;;;;;3.57;52.94;98805.64;79564;1298;3012997;-61
2023/03/06 15:51:56;;;;;;;11.80;5.10;;;;;;;3.61;52.86;98809.79;78229;1298;3026403;-63
2023/03/06 15:54:23;;;;;;;20.00;5.60;;;;;;;3.68;52.61;98816.23;79482;1295;3013007;-60
2023/03/06 15:56:50;;;;;;;14.90;6.70;;;;;;;3.65;52.94;98815.15;79366;1308;3011774;-61
2023/03/06 15:59:23;;;;;;;17.10;7.80;;;;;;;3.71;52.67;98815.41;78381;1296;3052078;-64
2023/03/06 16:02:03;;;;;;;17.10;8.10;;;;;;;3.65;53.05;98813.95;78207;1299;3050567;-65
2023/03/06 16:04:32;;;;;;;17.90;7.30;;;;;;;3.62;53.31;98815.09;78270;1300;3052137;-67
2023/03/06 16:06:59;;;;;;;18.60;7.10;;;;;;;3.61;53.23;98817.57;79543;1296;3012834;-65
2023/03/06 16:09:27;;;;;;;16.00;6.60;;;;;;;3.57;53.60;98818.42;79419;1298;3011728;-66
2023/03/06 16:11:55;;;;;;;17.50;7.40;;;;;;;3.55;53.36;98819.23;78237;1299;3056508;-64
2023/03/06 16:14:22;;;;;;;18.40;7.20;;;;;;;3.55;53.20;98821.66;79604;1296;3013496;-64
2023/03/06 16:16:50;;;;;;;22.00;7.70;;;;;;;3.49;53.57;98830.19;79422;1298;3011481;-62
2023/03/06 16:19:20;;;;;;;17.00;7.70;;;;;;;3.54;53.35;98822.08;78338;1299;3053391;-62
2023/03/06 16:21:46;;;;;;;18.60;8.00;;;;;;;3.52;53.58;98828.35;79663;1295;3012079;-63
2023/03/06 16:24:14;;;;;;;21.30;7.80;;;;;;;3.55;53.60;98826.98;79407;1296;3011904;-63
2023/03/06 16:26:52;;;;;;;24.00;8.40;;;;;;;3.58;53.31;98831.41;78000;1298;3056933;-64
2023/03/06 16:29:23;;;;;;;21.10;8.60;;;;;;;3.52;53.09;98829.38;78228;1298;3051599;-64
2023/03/06 16:31:52;;;;;;;19.60;8.40;;;;;;;3.45;53.23;98831.94;79385;1295;3011682;-61
2023/03/06 16:34:21;;;;;;;17.10;6.80;;;;;;;3.49;52.97;98837.84;78243;1296;3050167;-63
2023/03/06 16:36:49;;;;;;;15.70;7.00;;;;;;;3.50;52.47;98832.77;79430;1301;3013408;-63
2023/03/06 16:39:18;;;;;;;14.30;7.30;;;;;;;3.46;52.65;98840.19;79363;1299;3011662;-65
2023/03/06 16:41:49;;;;;;;19.10;9.00;;;;;;;3.50;52.87;98840.71;78178;1306;3052782;-65
2023/03/06 16:44:16;;;;;;;16.60;7.60;;;;;;;3.44;53.45;98837.17;79413;1298;3013150;-65
2023/03/06 16:46:44;;;;;;;11.40;6.40;;;;;;;3.43;52.92;98837.39;79348;1298;3011580;-67
2023/03/06 16:49:20;;;;;;;16.50;7.20;;;;;;;3.50;52.93;98836.40;78321;1298;3050021;-68
2023/03/06 16:51:48;;;;;;;14.00;7.30;;;;;;;3.43;52.56;98843.45;78185;1298;3052381;-64
2023/03/06 16:54:15;;;;;;;13.30;7.00;;;;;;;3.46;52.64;98842.77;79452;1298;3018717;-64
2023/03/06 16:56:42;;;;;;;18.80;8.70;;;;;;;3.53;52.76;98844.23;79441;1298;3013423;-61
2023/03/06 16:59:12;;;;;;;19.30;9.90;;;;;;;3.39;53.35;98846.17;78374;1298;3056335;-65
2023/03/06 17:01:39;;;;;;;21.20;8.90;;;;;;;3.31;53.66;98853.61;79443;1294;3012610;-62
2023/03/06 17:04:05;;;;;;;28.00;10.10;;;;;;;3.28;54.21;98853.04;79569;1294;3012287;-64
2023/03/06 17:06:33;;;;;;;26.50;10.70;;;;;;;3.18;54.68;98854.98;78151;1298;3051069;-63
2023/03/06 17:09:01;;;;;;;28.20;11.70;;;;;;;3.21;54.82;98850.58;79274;1299;3012923;-64
2023/03/06 17:11:27;;;;;;;21.70;10.50;;;;;;;3.12;54.85;98851.77;79531;1298;3011532;-62
2023/03/06 17:14:00;;;;;;;19.20;8.10;;;;;;;3.19;54.59;98855.51;78473;1296;3057829;-66
2023/03/06 17:16:27;;;;;;;16.60;8.50;;;;;;;3.14;55.24;98855.67;79649;1295;3013234;-62
2023/03/06 17:18:53;;;;;;;18.40;7.00;;;;;;;3.31;54.08;98852.95;79558;1293;3011694;-64
2023/03/06 17:21:21;;;;;;;16.60;5.40;;;;;;;3.41;54.03;98853.92;78585;1298;3053167;-64
2023/03/06 17:23:49;;;;;;;17.00;5.50;;;;;;;3.42;53.84;98851.80;79632;1297;3012987;-64
2023/03/06 17:26:20;;;;;;;10.80;5.10;;;;;;;3.37;53.92;98849.40;78971;1295;3011711;-64
2023/03/06 17:28:47;;;;;;;9.70;5.50;;;;;;;3.34;53.84;98852.82;79701;1295;3013871;-64
2023/03/06 17:31:21;;;;;;;8.10;4.20;;;;;;;3.33;53.85;98853.54;79464;1295;3011670;-64
2023/03/06 17:33:59;;;;;;;11.80;5.20;;;;;;;3.24;54.34;98858.23;78256;1299;3054206;-64
2023/03/06 17:36:28;;;;;;;13.20;6.50;;;;;;;3.26;54.34;98859.17;78252;1298;3050638;-64
2023/03/06 17:38:55;;;;;;;11.30;6.20;;;;;;;3.30;54.25;98866.98;79541;1295;3013897;-64
2023/03/06 17:41:23;;;;;;;14.10;6.40;;;;;;;3.32;53.86;98865.84;79621;1295;3012023;-60
2023/03/06 17:43:51;;;;;;;15.60;6.70;;;;;;;3.24;53.98;98866.38;78230;1298;3052583;-61
2023/03/06 17:46:18;;;;;;;18.20;6.50;;;;;;;3.20;54.34;98868.44;79460;1296;3013311;-64
2023/03/06 17:48:45;;;;;;;17.20;7.10;;;;;;;3.26;53.84;98868.73;79509;1295;3013132;-64
2023/03/06 17:51:13;;;;;;;18.10;7.40;;;;;;;3.29;53.55;98871.36;78163;1298;3051788;-61
2023/03/06 17:53:39;;;;;;;13.80;6.20;;;;;;;3.20;53.80;98870.52;79419;1300;3013062;-64
2023/03/06 17:56:07;;;;;;;13.80;6.10;;;;;;;3.22;53.71;98870.08;79364;1299;3011615;-62
2023/03/06 17:58:36;;;;;;;12.70;6.10;;;;;;;3.27;53.56;98875.59;78198;1298;3051712;-63
2023/03/06 18:01:13;;;;;;;12.20;5.70;;;;;;;3.28;53.42;98873.13;79466;1296;3013302;-65
2023/03/06 18:04:02;;;;;;;12.90;6.30;;;;;;;3.33;53.18;98873.80;78100;1296;3055577;-63
2023/03/06 18:06:32;;;;;;;20.10;7.10;;;;;;;3.23;53.70;98878.86;79424;1294;3013155;-65
2023/03/06 18:09:00;;;;;;;16.30;7.70;;;;;;;3.17;53.83;98878.41;78203;1298;3026858;-60
2023/03/06 18:11:26;;;;;;;22.30;9.10;;;;;;;3.13;54.24;98879.45;79498;1294;3013178;-63
2023/03/06 18:13:53;;;;;;;22.00;8.90;;;;;;;3.15;54.44;98877.11;79488;1295;3014003;-61
2023/03/06 18:16:40;;;;;;;18.50;7.70;;;;;;;3.20;54.23;98878.63;77990;1295;3055440;-62
2023/03/06 18:19:09;;;;;;;23.60;10.70;;;;;;;3.23;54.10;98879.91;79418;1298;3018342;-64
2023/03/06 18:21:37;;;;;;;31.60;13.30;;;;;;;3.14;54.52;98882.69;79306;1301;3011713;-64
2023/03/06 18:24:06;;;;;;;27.90;10.90;;;;;;;3.00;55.73;98886.86;78354;1298;3054251;-64
2023/03/06 18:26:33;;;;;;;30.00;12.10;;;;;;;3.01;55.99;98889.76;79817;1295;3012774;-63
2023/03/06 18:29:03;;;;;;;25.10;12.00;;;;;;;3.12;55.57;98891.95;79170;1298;3013246;-62
2023/03/06 18:31:32;;;;;;;27.00;11.80;;;;;;;3.09;55.46;98889.80;79625;1299;3013898;-62
2023/03/06 18:34:03;;;;;;;28.80;13.00;;;;;;;3.00;55.74;98889.63;78426;1297;3050362;-60
2023/03/06 18:36:32;;;;;;;27.80;12.80;;;;;;;3.03;56.15;98889.88;79589;1296;3011339;-60
2023/03/06 18:39:02;;;;;;;30.20;10.90;;;;;;;3.06;55.51;98889.05;78367;1297;3029485;-61
2023/03/06 18:41:36;;;;;;;16.70;8.90;;;;;;;3.17;54.90;98891.55;78343;1297;3052369;-62
2023/03/06 18:44:02;;;;;;;21.40;9.50;;;;;;;3.15;55.11;98893.36;79700;1298;3018329;-64
2023/03/06 18:46:31;;;;;;;18.20;9.40;;;;;;;3.11;55.45;98892.16;79549;1298;3011864;-63
2023/03/06 18:49:00;;;;;;;20.00;10.20;;;;;;;3.09;55.48;98892.38;78295;1298;3056456;-61
2023/03/06 18:51:29;;;;;;;18.50;8.40;;;;;;;3.06;55.54;98895.27;79488;1298;3011635;-64
2023/03/06 18:53:59;;;;;;;17.80;9.20;;;;;;;3.09;55.76;98892.23;79000;1296;3011585;-61
2023/03/06 18:56:26;;;;;;;20.30;9.60;;;;;;;3.15;55.63;98898.73;79383;1295;3012898;-63
2023/03/06 18:58:53;;;;;;;19.30;8.80;;;;;;;3.18;55.36;98899.33;79559;1299;3011600;-64